createdAt,value
2018-01-24T00:00:59.373Z,3.27
2018-01-24T00:03:27.875Z,3.00
2018-01-24T00:05:56.353Z,3.50
2018-01-24T00:08:24.829Z,3.43
2018-01-24T00:10:53.295Z,2.60
2018-01-24T00:13:21.754Z,2.47
2018-01-24T00:15:50.196Z,2.67
2018-01-24T00:18:18.686Z,3.17
2018-01-24T00:20:48.125Z,3.30
2018-01-24T00:23:16.598Z,2.80
2018-01-24T00:25:45.048Z,2.70
2018-01-24T00:28:14.285Z,3.07
2018-01-24T00:30:42.756Z,2.60
2018-01-24T00:33:11.248Z,3.20
2018-01-24T00:35:39.710Z,2.80
2018-01-24T00:38:09.036Z,3.30
2018-01-24T00:40:37.939Z,3.00
2018-01-24T00:43:07.164Z,2.77
2018-01-24T00:45:35.646Z,2.77
2018-01-24T00:48:04.116Z,2.67
2018-01-24T00:50:32.582Z,2.20
2018-01-24T00:53:01.050Z,3.17
2018-01-24T00:55:30.279Z,2.60
2018-01-24T00:57:58.771Z,2.57
2018-01-24T01:00:27.655Z,2.20
2018-01-24T01:02:56.905Z,2.00
2018-01-24T01:05:25.357Z,2.50
2018-01-24T01:07:53.868Z,2.70
2018-01-24T01:10:22.330Z,2.50
2018-01-24T01:12:50.786Z,2.80
2018-01-24T01:15:20.004Z,2.60
2018-01-24T01:17:48.463Z,2.03
2018-01-24T01:20:17.675Z,2.43
2018-01-24T01:22:46.146Z,2.43
2018-01-24T01:25:14.658Z,2.10
2018-01-24T01:27:43.103Z,2.20
2018-01-24T01:30:11.565Z,2.70
2018-01-24T01:32:40.780Z,1.97
2018-01-24T01:35:09.303Z,2.00
2018-01-24T01:37:37.744Z,2.10
2018-01-24T01:40:06.996Z,2.47
2018-01-24T01:42:35.463Z,2.13
2018-01-24T01:45:03.929Z,2.20
2018-01-24T01:47:32.202Z,2.87
2018-01-24T01:50:00.468Z,2.17
2018-01-24T01:52:28.876Z,2.87
2018-01-24T01:54:57.160Z,2.40
2018-01-24T01:57:25.608Z,2.50
2018-01-24T01:59:53.894Z,2.10
2018-01-24T02:02:22.351Z,1.90
2018-01-24T02:04:50.821Z,2.90
2018-01-24T02:07:19.087Z,2.97
2018-01-24T02:09:47.542Z,2.10
2018-01-24T02:12:16.751Z,2.17
2018-01-24T02:14:45.978Z,2.23
2018-01-24T02:17:14.461Z,2.40
2018-01-24T02:19:42.916Z,2.30
2018-01-24T02:22:11.350Z,2.20
2018-01-24T02:24:39.822Z,2.23
2018-01-24T02:27:08.902Z,2.33
2018-01-24T02:29:37.364Z,2.47
2018-01-24T02:32:05.813Z,2.17
2018-01-24T02:34:35.675Z,2.13
2018-01-24T02:37:04.132Z,3.63
2018-01-24T02:39:32.727Z,2.30
2018-01-24T02:42:01.206Z,2.93
2018-01-24T02:44:29.681Z,2.47
2018-01-24T02:46:58.144Z,2.93
2018-01-24T02:49:26.586Z,2.80
2018-01-24T02:51:55.036Z,2.57
2018-01-24T02:54:23.515Z,2.50
2018-01-24T02:56:51.982Z,2.73
2018-01-24T02:59:20.450Z,2.57
2018-01-24T03:01:48.904Z,2.93
2018-01-24T03:04:17.795Z,2.90
2018-01-24T03:06:47.010Z,2.50
2018-01-24T03:09:15.505Z,2.83
2018-01-24T03:11:43.961Z,2.90
2018-01-24T03:14:12.407Z,2.60
2018-01-24T03:16:40.911Z,2.43
2018-01-24T03:19:09.827Z,2.77
2018-01-24T03:21:39.251Z,2.40
2018-01-24T03:24:08.343Z,2.57
2018-01-24T03:26:37.441Z,2.40
2018-01-24T03:29:06.199Z,2.30
2018-01-24T03:31:34.660Z,2.40
2018-01-24T03:34:03.928Z,2.10
2018-01-24T03:36:32.372Z,1.90
2018-01-24T03:39:00.849Z,1.83
2018-01-24T03:41:29.516Z,2.20
2018-01-24T03:43:57.956Z,2.23
2018-01-24T03:46:26.418Z,2.17
2018-01-24T03:48:54.904Z,2.20
2018-01-24T03:51:23.384Z,2.43
2018-01-24T03:53:51.840Z,1.93
2018-01-24T03:56:20.295Z,2.07
2018-01-24T03:58:48.773Z,2.20
2018-01-24T04:01:17.242Z,2.37
2018-01-24T04:03:45.731Z,2.20
2018-01-24T04:06:14.187Z,1.93
2018-01-24T04:08:43.400Z,2.10
2018-01-24T04:11:12.083Z,2.17
2018-01-24T04:13:40.561Z,2.03
2018-01-24T04:16:08.719Z,2.13
2018-01-24T04:18:37.936Z,1.90
2018-01-24T04:21:07.108Z,2.47
2018-01-24T04:23:36.787Z,2.17
2018-01-24T04:26:05.252Z,2.10
2018-01-24T04:28:33.726Z,1.93
2018-01-24T04:31:02.186Z,1.90
2018-01-24T04:33:30.663Z,2.00
2018-01-24T04:35:59.128Z,1.90
2018-01-24T04:38:28.370Z,1.90
2018-01-24T04:40:56.837Z,1.80
2018-01-24T04:43:25.287Z,2.20
2018-01-24T04:45:53.580Z,2.10
2018-01-24T04:48:22.077Z,1.73
2018-01-24T04:50:50.340Z,1.60
2018-01-24T04:53:18.805Z,1.50
2018-01-24T04:55:47.361Z,1.80
2018-01-24T04:58:16.408Z,2.00
2018-01-24T05:00:44.667Z,1.90
2018-01-24T05:03:13.132Z,2.10
2018-01-24T05:05:41.589Z,1.93
2018-01-24T05:08:10.628Z,1.87
2018-01-24T05:10:39.078Z,2.03
2018-01-24T05:13:07.543Z,2.20
2018-01-24T05:15:37.711Z,1.77
2018-01-24T05:18:06.374Z,2.00
2018-01-24T05:20:34.661Z,1.80
2018-01-24T05:23:02.945Z,2.10
2018-01-24T05:25:31.417Z,1.90
2018-01-24T05:27:59.870Z,1.80
2018-01-24T05:30:28.349Z,2.03
2018-01-24T05:32:56.814Z,2.27
2018-01-24T05:35:26.094Z,1.70
2018-01-24T05:37:54.583Z,1.60
2018-01-24T05:40:23.088Z,2.00
2018-01-24T05:42:52.303Z,2.00
2018-01-24T05:45:20.814Z,1.87
2018-01-24T05:47:49.262Z,1.90
2018-01-24T05:50:17.727Z,1.93
2018-01-24T05:52:46.180Z,1.90
2018-01-24T05:55:14.680Z,1.90
2018-01-24T05:57:43.884Z,2.40
2018-01-24T06:00:12.349Z,2.10
2018-01-24T06:02:41.581Z,1.80
2018-01-24T06:05:10.111Z,2.67
2018-01-24T06:07:39.248Z,2.10
2018-01-24T06:10:08.693Z,2.40
2018-01-24T06:12:38.425Z,2.23
2018-01-24T06:15:08.571Z,2.80
2018-01-24T06:17:37.807Z,3.13
2018-01-24T06:20:06.362Z,3.03
2018-01-24T06:22:35.875Z,2.67
2018-01-24T06:25:04.343Z,2.70
2018-01-24T06:27:32.867Z,2.50
2018-01-24T06:30:01.290Z,2.27
2018-01-24T06:32:29.795Z,2.30
2018-01-24T06:34:58.285Z,2.37
2018-01-24T06:37:26.757Z,2.53
2018-01-24T06:39:55.243Z,2.33
2018-01-24T06:42:24.695Z,2.20
2018-01-24T06:44:53.938Z,2.30
2018-01-24T06:47:22.407Z,1.97
2018-01-24T06:49:50.885Z,2.30
2018-01-24T06:52:19.379Z,2.37
2018-01-24T06:54:47.828Z,1.90
2018-01-24T06:57:16.298Z,2.37
2018-01-24T06:59:45.534Z,1.90
2018-01-24T07:02:13.998Z,2.70
2018-01-24T07:04:42.443Z,2.10
2018-01-24T07:07:11.825Z,2.27
2018-01-24T07:09:40.293Z,2.80
2018-01-24T07:12:20.091Z,2.47
2018-01-24T07:14:48.551Z,4.40
2018-01-24T07:17:17.790Z,3.17
2018-01-24T07:19:46.257Z,2.93
2018-01-24T07:22:14.711Z,3.53
2018-01-24T07:24:43.971Z,4.57
2018-01-24T07:27:12.439Z,3.20
2018-01-24T07:29:40.910Z,3.60
2018-01-24T07:32:09.432Z,4.10
2018-01-24T07:34:38.818Z,3.80
2018-01-24T07:37:07.941Z,4.60
2018-01-24T07:39:37.173Z,3.30
2018-01-24T07:42:05.646Z,4.20
2018-01-24T07:44:34.130Z,4.40
2018-01-24T07:47:02.618Z,4.57
2018-01-24T07:49:31.099Z,4.77
2018-01-24T07:51:59.548Z,4.37
2018-01-24T07:54:28.767Z,4.23
2018-01-24T07:56:57.481Z,4.77
2018-01-24T07:59:25.737Z,4.50
2018-01-24T08:01:54.046Z,4.47
2018-01-24T08:04:22.335Z,5.13
2018-01-24T08:06:50.891Z,4.20
2018-01-24T08:09:19.156Z,7.17
2018-01-24T08:11:47.632Z,6.20
2018-01-24T08:14:16.097Z,6.00
2018-01-24T08:16:44.634Z,6.50
2018-01-24T08:19:13.117Z,5.97
2018-01-24T08:21:41.595Z,6.23
2018-01-24T08:24:10.085Z,7.13
2018-01-24T08:26:39.305Z,6.20
2018-01-24T08:29:08.437Z,5.53
2018-01-24T08:31:37.385Z,5.37
2018-01-24T08:34:05.868Z,5.30
2018-01-24T08:36:34.338Z,5.67
2018-01-24T08:39:03.044Z,4.77
2018-01-24T08:41:31.219Z,4.63
2018-01-24T08:43:59.673Z,4.77
2018-01-24T08:46:28.885Z,4.97
2018-01-24T08:48:57.371Z,4.20
2018-01-24T08:51:25.882Z,4.17
2018-01-24T08:53:54.359Z,3.83
2018-01-24T08:56:22.818Z,4.70
2018-01-24T08:58:51.306Z,3.93
2018-01-24T09:01:19.782Z,4.03
2018-01-24T09:03:48.236Z,4.13
2018-01-24T09:06:16.702Z,3.40
2018-01-24T09:08:45.913Z,4.20
2018-01-24T09:11:14.396Z,3.93
2018-01-24T09:13:42.862Z,3.90
2018-01-24T09:16:12.107Z,3.43
2018-01-24T09:18:40.579Z,4.40
2018-01-24T09:21:09.949Z,3.90
2018-01-24T09:23:39.065Z,4.53
2018-01-24T09:26:07.538Z,4.27
2018-01-24T09:28:36.034Z,4.70
2018-01-24T09:31:04.481Z,4.50
2018-01-24T09:33:32.933Z,4.43
2018-01-24T09:36:01.426Z,4.93
2018-01-24T09:38:30.663Z,4.90
2018-01-24T09:40:59.162Z,4.83
2018-01-24T09:43:27.640Z,4.80
2018-01-24T09:45:57.090Z,4.23
2018-01-24T09:48:25.982Z,3.90
2018-01-24T09:50:55.235Z,4.23
2018-01-24T09:53:23.699Z,4.10
2018-01-24T09:55:52.154Z,3.97
2018-01-24T09:58:20.628Z,4.23
2018-01-24T10:00:49.089Z,4.40
2018-01-24T10:03:18.313Z,4.00
2018-01-24T10:05:47.195Z,3.87
2018-01-24T10:08:15.650Z,4.57
2018-01-24T10:10:44.890Z,3.60
2018-01-24T10:13:13.358Z,3.63
2018-01-24T10:15:41.685Z,3.17
2018-01-24T10:18:10.158Z,3.77
2018-01-24T10:20:39.193Z,4.90
2018-01-24T10:23:09.274Z,3.23
2018-01-24T10:25:37.725Z,3.40
2018-01-24T10:28:06.499Z,3.60
2018-01-24T10:30:35.178Z,3.50
2018-01-24T10:33:04.570Z,3.60
2018-01-24T10:35:33.032Z,3.40
2018-01-24T10:38:02.264Z,3.60
2018-01-24T10:40:30.717Z,3.20
2018-01-24T10:42:58.845Z,3.60
2018-01-24T10:45:27.305Z,3.70
2018-01-24T10:47:55.795Z,3.30
2018-01-24T10:50:24.263Z,3.80
2018-01-24T10:52:52.718Z,3.87
2018-01-24T10:55:21.190Z,4.80
2018-01-24T10:57:49.646Z,4.40
2018-01-24T11:00:18.908Z,4.40
2018-01-24T11:02:47.377Z,5.10
2018-01-24T11:05:15.842Z,4.77
2018-01-24T11:07:44.297Z,5.13
2018-01-24T11:10:12.777Z,4.40
2018-01-24T11:12:41.980Z,4.87
2018-01-24T11:15:10.458Z,4.87
2018-01-24T11:17:38.950Z,4.60
2018-01-24T11:20:07.933Z,5.27
2018-01-24T11:22:36.614Z,5.93
2018-01-24T11:25:05.862Z,5.40
2018-01-24T11:27:34.314Z,5.30
2018-01-24T11:30:02.785Z,6.37
2018-01-24T11:32:31.259Z,5.70
2018-01-24T11:34:59.735Z,6.13
2018-01-24T11:37:28.200Z,6.03
2018-01-24T11:39:57.433Z,5.70
2018-01-24T11:42:25.925Z,5.87
2018-01-24T11:44:54.410Z,6.17
2018-01-24T11:47:22.877Z,5.13
2018-01-24T11:49:51.352Z,6.17
2018-01-24T11:52:19.819Z,5.67
2018-01-24T11:54:48.297Z,5.27
2018-01-24T11:57:16.768Z,4.83
2018-01-24T11:59:45.235Z,4.93
2018-01-24T12:02:14.480Z,4.83
2018-01-24T12:04:42.987Z,4.53
2018-01-24T12:07:11.493Z,4.67
2018-01-24T12:09:40.720Z,4.40
2018-01-24T12:12:10.041Z,3.47
2018-01-24T12:14:39.485Z,3.87
2018-01-24T12:17:09.175Z,3.13
2018-01-24T12:19:37.645Z,3.10
2018-01-24T12:22:06.121Z,3.03
2018-01-24T12:24:34.584Z,3.03
2018-01-24T12:27:03.044Z,2.80
2018-01-24T12:29:31.519Z,2.90
2018-01-24T12:31:59.981Z,2.50
2018-01-24T12:34:29.248Z,2.53
2018-01-24T12:36:57.729Z,2.50
2018-01-24T12:39:26.176Z,2.60
2018-01-24T12:41:54.647Z,2.30
2018-01-24T12:44:22.807Z,2.53
2018-01-24T12:46:50.948Z,2.30
2018-01-24T12:49:20.165Z,2.47
2018-01-24T12:51:48.657Z,2.17
2018-01-24T12:54:17.135Z,2.30
2018-01-24T12:56:45.586Z,2.10
2018-01-24T12:59:14.825Z,2.03
2018-01-24T13:01:43.318Z,2.07
2018-01-24T13:04:11.957Z,1.80
2018-01-24T13:06:41.200Z,2.00
2018-01-24T13:09:09.681Z,1.50
2018-01-24T13:11:39.169Z,1.60
2018-01-24T13:14:07.799Z,1.50
2018-01-24T13:16:36.581Z,1.40
2018-01-24T13:19:04.717Z,1.80
2018-01-24T13:21:32.851Z,1.60
2018-01-24T13:24:02.088Z,1.50
2018-01-24T13:26:30.532Z,1.50
2018-01-24T13:28:59.777Z,1.70
2018-01-24T13:31:28.230Z,1.60
2018-01-24T13:33:56.710Z,1.40
2018-01-24T13:36:25.006Z,1.63
2018-01-24T13:38:53.479Z,1.57
2018-01-24T13:41:21.943Z,1.40
2018-01-24T13:43:50.406Z,1.80
2018-01-24T13:46:18.903Z,1.73
2018-01-24T13:48:47.358Z,1.80
2018-01-24T13:51:16.794Z,1.50
2018-01-24T13:53:45.277Z,1.63
2018-01-24T13:56:13.754Z,1.67
2018-01-24T13:58:42.234Z,1.53
2018-01-24T14:01:10.719Z,1.43
2018-01-24T14:03:40.123Z,1.30
2018-01-24T14:06:09.314Z,1.30
2018-01-24T14:08:37.794Z,1.23
2018-01-24T14:11:06.264Z,1.30
2018-01-24T14:13:36.049Z,1.40
2018-01-24T14:16:05.281Z,1.60
2018-01-24T14:18:33.542Z,1.40
2018-01-24T14:21:02.008Z,1.50
2018-01-24T14:23:30.472Z,1.50
2018-01-24T14:25:59.727Z,1.70
2018-01-24T14:28:28.224Z,1.60
2018-01-24T14:30:56.703Z,1.60
2018-01-24T14:33:25.155Z,1.50
2018-01-24T14:35:53.605Z,1.43
2018-01-24T14:38:22.179Z,2.10
2018-01-24T14:40:50.798Z,1.60
2018-01-24T14:43:19.266Z,1.53
2018-01-24T14:45:47.717Z,1.67
2018-01-24T14:48:16.949Z,1.40
2018-01-24T14:50:45.439Z,1.77
2018-01-24T14:53:13.922Z,1.60
2018-01-24T14:55:42.411Z,1.83
2018-01-24T14:58:11.641Z,2.00
2018-01-24T15:00:40.342Z,2.00
2018-01-24T15:03:09.577Z,1.73
2018-01-24T15:05:38.648Z,1.83
2018-01-24T15:08:07.669Z,2.30
2018-01-24T15:10:36.116Z,2.30
2018-01-24T15:13:04.577Z,2.27
2018-01-24T15:15:33.796Z,2.67
2018-01-24T15:18:02.280Z,2.20
2018-01-24T15:20:30.760Z,2.40
2018-01-24T15:22:59.247Z,2.33
2018-01-24T15:25:27.739Z,2.10
2018-01-24T15:27:56.233Z,2.33
2018-01-24T15:30:24.676Z,2.00
2018-01-24T15:32:53.148Z,2.00
2018-01-24T15:35:22.379Z,2.00
2018-01-24T15:37:50.856Z,2.20
2018-01-24T15:40:19.313Z,1.97
2018-01-24T15:42:47.762Z,1.87
2018-01-24T15:45:16.250Z,2.00
2018-01-24T15:47:45.478Z,1.77
2018-01-24T15:50:13.967Z,1.77
2018-01-24T15:52:42.422Z,2.13
2018-01-24T15:55:11.647Z,1.83
2018-01-24T15:57:40.123Z,2.50
2018-01-24T16:00:08.245Z,2.20
2018-01-24T16:02:36.729Z,1.90
2018-01-24T16:05:04.856Z,2.03
2018-01-24T16:07:33.302Z,1.87
2018-01-24T16:10:02.528Z,1.43
2018-01-24T16:12:30.982Z,1.90
2018-01-24T16:15:00.244Z,1.80
2018-01-24T16:17:28.734Z,1.80
2018-01-24T16:19:57.206Z,1.80
2018-01-24T16:22:25.692Z,1.60
2018-01-24T16:24:54.145Z,1.80
2018-01-24T16:27:22.615Z,1.70
2018-01-24T16:29:51.110Z,2.00
2018-01-24T16:32:19.568Z,2.20
2018-01-24T16:34:48.021Z,2.27
2018-01-24T16:37:16.325Z,2.03
2018-01-24T16:39:44.776Z,2.70
2018-01-24T16:42:13.266Z,2.63
2018-01-24T16:44:41.743Z,2.40
2018-01-24T16:47:10.233Z,2.27
2018-01-24T16:49:39.674Z,2.20
2018-01-24T16:52:08.882Z,3.20
2018-01-24T16:54:38.324Z,2.70
2018-01-24T16:57:06.803Z,2.90
2018-01-24T16:59:35.282Z,3.10
2018-01-24T17:02:03.772Z,6.43
2018-01-24T17:04:32.215Z,4.23
2018-01-24T17:07:01.479Z,3.13
2018-01-24T17:09:29.947Z,2.97
2018-01-24T17:11:58.416Z,2.47
2018-01-24T17:14:26.854Z,2.40
2018-01-24T17:16:56.142Z,2.60
2018-01-24T17:19:24.588Z,2.43
2018-01-24T17:21:53.091Z,2.87
2018-01-24T17:24:21.568Z,2.47
2018-01-24T17:26:50.032Z,2.47
2018-01-24T17:29:18.477Z,2.47
2018-01-24T17:31:46.993Z,3.00
2018-01-24T17:34:15.487Z,2.17
2018-01-24T17:36:43.960Z,1.93
2018-01-24T17:39:12.423Z,2.00
2018-01-24T17:41:40.914Z,2.30
2018-01-24T17:44:10.355Z,2.47
2018-01-24T17:46:39.988Z,2.27
2018-01-24T17:49:08.433Z,2.37
2018-01-24T17:51:37.941Z,2.37
2018-01-24T17:54:07.206Z,2.40
2018-01-24T17:56:35.669Z,2.70
2018-01-24T17:59:04.127Z,2.50
2018-01-24T18:01:32.807Z,2.10
2018-01-24T18:04:01.269Z,2.40
2018-01-24T18:06:30.520Z,2.20
2018-01-24T18:08:58.984Z,2.60
2018-01-24T18:11:27.472Z,2.30
2018-01-24T18:13:55.936Z,2.70
2018-01-24T18:16:24.397Z,3.17
2018-01-24T18:18:53.621Z,2.80
2018-01-24T18:21:22.060Z,3.03
2018-01-24T18:23:51.313Z,5.90
2018-01-24T18:26:19.772Z,8.73
2018-01-24T18:28:48.241Z,7.03
2018-01-24T18:31:16.737Z,6.83
2018-01-24T18:33:45.183Z,7.23
2018-01-24T18:36:14.448Z,6.57
2018-01-24T18:38:42.902Z,6.07
2018-01-24T18:41:11.406Z,4.83
2018-01-24T18:43:39.880Z,3.97
2018-01-24T18:46:08.354Z,4.13
2018-01-24T18:48:36.836Z,3.47
2018-01-24T18:51:05.313Z,3.73
2018-01-24T18:53:33.774Z,3.70
2018-01-24T18:56:02.259Z,3.27
2018-01-24T18:58:30.703Z,2.60
2018-01-24T19:01:00.075Z,2.70
2018-01-24T19:03:28.542Z,2.37
2018-01-24T19:05:57.011Z,2.60
2018-01-24T19:08:25.520Z,2.47
2018-01-24T19:10:54.017Z,2.20
2018-01-24T19:13:23.237Z,2.30
2018-01-24T19:15:51.738Z,2.87
2018-01-24T19:18:20.189Z,2.33
2018-01-24T19:20:48.664Z,2.73
2018-01-24T19:23:17.908Z,2.70
2018-01-24T19:25:46.392Z,2.80
2018-01-24T19:28:14.845Z,2.90
2018-01-24T19:30:43.292Z,2.73
2018-01-24T19:33:12.542Z,2.77
2018-01-24T19:35:41.015Z,2.73
2018-01-24T19:38:10.477Z,3.00
2018-01-24T19:40:39.873Z,2.70
2018-01-24T19:43:09.126Z,3.03
2018-01-24T19:45:37.617Z,2.87
2018-01-24T19:48:06.061Z,2.70
2018-01-24T19:50:34.505Z,3.20
2018-01-24T19:53:03.750Z,2.93
2018-01-24T19:55:32.224Z,3.10
2018-01-24T19:58:00.690Z,2.87
2018-01-24T20:00:29.133Z,3.20
2018-01-24T20:02:57.620Z,3.23
2018-01-24T20:05:26.825Z,3.03
2018-01-24T20:07:55.845Z,2.77
2018-01-24T20:10:24.310Z,2.97
2018-01-24T20:12:52.793Z,2.87
2018-01-24T20:15:21.284Z,2.70
2018-01-24T20:17:49.723Z,2.70
2018-01-24T20:20:18.231Z,2.80
2018-01-24T20:22:46.673Z,3.03
2018-01-24T20:25:15.144Z,2.80
2018-01-24T20:27:43.633Z,2.87
2018-01-24T20:30:12.080Z,2.90
2018-01-24T20:32:40.559Z,3.07
2018-01-24T20:35:09.391Z,2.70
2018-01-24T20:37:39.220Z,2.83
2018-01-24T20:40:08.448Z,2.93
2018-01-24T20:42:36.987Z,2.90
2018-01-24T20:45:06.257Z,3.00
2018-01-24T20:47:34.730Z,3.40
2018-01-24T20:50:03.200Z,2.80
2018-01-24T20:52:31.640Z,3.00
2018-01-24T20:55:00.150Z,2.83
2018-01-24T20:57:28.617Z,3.73
2018-01-24T20:59:57.085Z,3.90
2018-01-24T21:02:25.573Z,3.73
2018-01-24T21:04:54.076Z,4.40
2018-01-24T21:07:22.539Z,4.60
2018-01-24T21:09:51.627Z,30.70
2018-01-24T21:12:20.085Z,9.97
2018-01-24T21:14:49.384Z,16.17
2018-01-24T21:17:18.019Z,16.17
2018-01-24T21:19:46.511Z,17.70
2018-01-24T21:22:15.024Z,18.83
2018-01-24T21:24:44.264Z,20.47
2018-01-24T21:27:12.721Z,33.80
2018-01-24T21:29:59.443Z,33.77
2018-01-24T21:32:39.045Z,40.73
2018-01-24T21:38:12.095Z,37.67
2018-01-24T21:40:40.574Z,38.87
2018-01-24T21:43:09.977Z,34.20
2018-01-24T21:45:39.094Z,32.20
2018-01-24T21:48:08.387Z,32.27
2018-01-24T21:50:37.055Z,30.53
2018-01-24T21:53:05.548Z,31.40
2018-01-24T21:55:33.991Z,52.10
2018-01-24T21:58:02.478Z,44.40
2018-01-24T22:00:30.958Z,90.57
2018-01-24T22:02:59.932Z,9.20
2018-01-24T22:05:29.146Z,5.20
2018-01-24T22:07:57.596Z,8.47
2018-01-24T22:10:26.848Z,3.77
2018-01-24T22:12:55.321Z,9.60
2018-01-24T22:15:23.935Z,9.70
2018-01-24T22:17:52.407Z,6.53
2018-01-24T22:20:21.314Z,9.63
2018-01-24T22:22:50.008Z,9.57
2018-01-24T22:25:18.463Z,4.17
2018-01-24T22:27:46.964Z,6.60
2018-01-24T22:30:15.412Z,4.23
2018-01-24T22:32:43.866Z,3.87
2018-01-24T22:35:12.348Z,2.80
2018-01-24T22:37:41.027Z,4.00
2018-01-24T22:40:09.492Z,3.10
2018-01-24T22:42:38.730Z,3.30
2018-01-24T22:45:07.020Z,3.73
2018-01-24T22:47:35.475Z,4.20
2018-01-24T22:50:03.948Z,4.50
2018-01-24T22:52:32.439Z,4.00
2018-01-24T22:55:00.893Z,3.63
2018-01-24T22:57:30.251Z,3.30
2018-01-24T22:59:59.668Z,3.10
2018-01-24T23:02:28.828Z,2.80
2018-01-24T23:04:59.050Z,3.13
2018-01-24T23:07:28.309Z,2.67
2018-01-24T23:09:57.573Z,3.07
2018-01-24T23:12:27.445Z,2.93
2018-01-24T23:14:55.931Z,3.63
2018-01-24T23:17:24.398Z,3.03
2018-01-24T23:19:52.864Z,3.60
2018-01-24T23:22:22.338Z,3.37
2018-01-24T23:24:50.791Z,3.50
2018-01-24T23:27:19.289Z,3.13
2018-01-24T23:29:47.741Z,3.60
2018-01-24T23:32:16.205Z,3.43
2018-01-24T23:34:44.665Z,2.90
2018-01-24T23:37:13.120Z,3.10
2018-01-24T23:39:42.335Z,2.63
2018-01-24T23:42:11.564Z,2.83
2018-01-24T23:44:40.073Z,2.90
2018-01-24T23:47:08.539Z,2.43
2018-01-24T23:49:37.032Z,2.73
2018-01-24T23:52:05.520Z,2.83
2018-01-24T23:54:33.973Z,2.53
2018-01-24T23:57:02.440Z,2.60
2018-01-24T23:59:30.905Z,2.63
